createdAt,value
2023-05-04T00:00:30.233Z,0
2023-05-04T00:01:46.541Z,0
2023-05-04T00:03:02.803Z,0
2023-05-04T00:04:19.119Z,0
2023-05-04T00:05:34.434Z,0
2023-05-04T00:06:50.704Z,0
2023-05-04T00:08:07.006Z,0
2023-05-04T00:09:23.314Z,0
2023-05-04T00:10:39.608Z,0
2023-05-04T00:11:55.909Z,0
2023-05-04T00:13:12.204Z,0
2023-05-04T00:14:28.472Z,0
2023-05-04T00:15:44.788Z,0
2023-05-04T00:17:01.089Z,0
2023-05-04T00:18:17.365Z,0
2023-05-04T00:19:33.686Z,0
2023-05-04T00:20:49.949Z,0
2023-05-04T00:22:05.273Z,0
2023-05-04T00:23:21.579Z,0
2023-05-04T00:24:37.885Z,0
2023-05-04T00:25:54.182Z,0
2023-05-04T00:27:10.462Z,0
2023-05-04T00:28:26.747Z,0
2023-05-04T00:29:43.028Z,0
2023-05-04T00:30:59.341Z,0
2023-05-04T00:32:15.639Z,0
2023-05-04T00:33:31.911Z,0
2023-05-04T00:34:48.229Z,0
2023-05-04T00:36:04.532Z,0
2023-05-04T00:37:20.804Z,0
2023-05-04T00:38:36.144Z,0
2023-05-04T00:39:52.426Z,0
2023-05-04T00:41:08.725Z,0
2023-05-04T00:42:25.020Z,0
2023-05-04T00:43:41.293Z,0
2023-05-04T00:44:57.584Z,0
2023-05-04T00:46:13.904Z,0
2023-05-04T00:47:30.202Z,0
2023-05-04T00:48:46.494Z,0
2023-05-04T00:50:02.786Z,0
2023-05-04T00:51:19.081Z,0
2023-05-04T00:52:35.360Z,0
2023-05-04T00:53:51.663Z,0
2023-05-04T00:55:06.976Z,0
2023-05-04T00:56:23.251Z,0
2023-05-04T00:57:39.584Z,0
2023-05-04T00:58:55.854Z,0
2023-05-04T01:00:12.160Z,0
2023-05-04T01:01:28.462Z,0
2023-05-04T01:02:44.747Z,0
2023-05-04T01:04:01.057Z,0
2023-05-04T01:05:17.333Z,0
2023-05-04T01:06:33.634Z,0
2023-05-04T01:07:49.902Z,0
2023-05-04T01:09:06.207Z,0
2023-05-04T01:10:22.501Z,0
2023-05-04T01:11:37.807Z,0
2023-05-04T01:12:54.118Z,0
2023-05-04T01:14:10.399Z,0
2023-05-04T01:15:26.000Z,0
2023-05-04T01:16:43.003Z,0
2023-05-04T01:17:59.305Z,0
2023-05-04T01:19:15.599Z,0
2023-05-04T01:20:31.896Z,0
2023-05-04T01:21:48.164Z,0
2023-05-04T01:23:04.461Z,0
2023-05-04T01:24:20.758Z,0
2023-05-04T01:25:37.071Z,0
2023-05-04T01:26:53.356Z,0
2023-05-04T01:28:08.691Z,0
2023-05-04T01:29:24.982Z,0
2023-05-04T01:30:41.273Z,0
2023-05-04T01:31:57.562Z,0
2023-05-04T01:33:13.848Z,0
2023-05-04T01:34:30.145Z,0
2023-05-04T01:35:46.453Z,0
2023-05-04T01:37:02.722Z,0
2023-05-04T01:38:19.027Z,0
2023-05-04T01:39:35.334Z,0
2023-05-04T01:40:51.633Z,0
2023-05-04T01:42:07.922Z,0
2023-05-04T01:43:24.225Z,0
2023-05-04T01:44:39.535Z,0
2023-05-04T01:45:55.804Z,0
2023-05-04T01:48:28.422Z,0
2023-05-04T01:49:44.700Z,0
2023-05-04T01:51:01.014Z,0
2023-05-04T01:52:16.332Z,0
2023-05-04T01:53:32.609Z,0
2023-05-04T01:54:48.905Z,0
2023-05-04T01:56:05.195Z,0
2023-05-04T01:57:21.485Z,0
2023-05-04T01:58:37.808Z,0
2023-05-04T01:59:54.085Z,0
2023-05-04T02:01:10.374Z,0
2023-05-04T02:02:26.676Z,0
2023-05-04T02:03:42.965Z,0
2023-05-04T02:04:59.272Z,0
2023-05-04T02:06:15.568Z,0
2023-05-04T02:07:31.824Z,0
2023-05-04T02:08:47.136Z,0
2023-05-04T02:10:03.436Z,0
2023-05-04T02:11:19.730Z,0
2023-05-04T02:12:36.021Z,0
2023-05-04T02:13:52.320Z,0
2023-05-04T02:15:08.609Z,0
2023-05-04T02:16:24.917Z,0
2023-05-04T02:17:41.200Z,0
2023-05-04T02:18:57.505Z,0
2023-05-04T02:20:13.798Z,0
2023-05-04T02:21:30.091Z,0
2023-05-04T02:22:46.381Z,0
2023-05-04T02:24:02.689Z,0
2023-05-04T02:25:17.986Z,0
2023-05-04T02:26:34.284Z,0
2023-05-04T02:27:50.578Z,0
2023-05-04T02:29:06.872Z,0
2023-05-04T02:30:23.165Z,0
2023-05-04T02:31:39.463Z,0
2023-05-04T02:32:55.765Z,0
2023-05-04T02:34:12.066Z,0
2023-05-04T02:35:28.351Z,0
2023-05-04T02:36:44.657Z,0
2023-05-04T02:38:00.943Z,0
2023-05-04T02:39:17.243Z,0
2023-05-04T02:40:33.531Z,0
2023-05-04T02:41:48.841Z,0
2023-05-04T02:43:05.136Z,0
2023-05-04T02:44:21.430Z,0
2023-05-04T02:45:37.732Z,0
2023-05-04T02:46:54.023Z,0
2023-05-04T02:48:10.323Z,0
2023-05-04T02:49:26.624Z,0
2023-05-04T02:50:42.899Z,0
2023-05-04T02:51:59.195Z,0
2023-05-04T02:53:15.497Z,0
2023-05-04T02:54:31.799Z,0
2023-05-04T02:55:48.094Z,0
2023-05-04T02:57:04.390Z,0
2023-05-04T02:58:19.702Z,0
2023-05-04T02:59:35.982Z,0
2023-05-04T03:00:52.285Z,0
2023-05-04T03:02:08.572Z,0
2023-05-04T03:03:24.871Z,0
2023-05-04T03:04:41.171Z,0
2023-05-04T03:05:57.400Z,1
2023-05-04T03:07:13.707Z,0
2023-05-04T03:08:30.009Z,0
2023-05-04T03:09:46.243Z,1
2023-05-04T03:11:02.493Z,1
2023-05-04T03:12:18.785Z,0
2023-05-04T03:13:35.089Z,0
2023-05-04T03:14:50.355Z,2
2023-05-04T03:16:06.590Z,3
2023-05-04T03:17:22.884Z,0
2023-05-04T03:18:39.186Z,0
2023-05-04T03:19:55.000Z,1
2023-05-04T03:21:11.675Z,1
2023-05-04T03:22:27.926Z,3
2023-05-04T03:23:44.158Z,1
2023-05-04T03:25:00.395Z,1
2023-05-04T03:26:16.636Z,1
2023-05-04T03:27:32.882Z,2
2023-05-04T03:28:49.124Z,2
2023-05-04T03:30:05.356Z,3
2023-05-04T03:31:20.625Z,3
2023-05-04T03:32:36.852Z,4
2023-05-04T03:33:53.101Z,4
2023-05-04T03:35:09.338Z,5
2023-05-04T03:36:25.572Z,5
2023-05-04T03:37:41.821Z,6
2023-05-04T03:38:58.072Z,6
2023-05-04T03:40:14.320Z,7
2023-05-04T03:41:30.540Z,7
2023-05-04T03:42:46.779Z,8
2023-05-04T03:44:03.019Z,9
2023-05-04T03:45:19.259Z,10
2023-05-04T03:46:35.520Z,11
2023-05-04T03:47:50.759Z,11
2023-05-04T03:49:07.003Z,13
2023-05-04T03:50:23.241Z,14
2023-05-04T03:51:39.489Z,15
2023-05-04T03:52:55.721Z,16
2023-05-04T03:54:11.980Z,16
2023-05-04T03:55:28.216Z,18
2023-05-04T03:56:44.463Z,18
2023-05-04T03:58:00.694Z,19
2023-05-04T03:59:16.941Z,20
2023-05-04T04:00:33.177Z,21
2023-05-04T04:01:49.418Z,22
2023-05-04T04:03:05.656Z,24
2023-05-04T04:04:20.920Z,25
2023-05-04T04:05:37.148Z,26
2023-05-04T04:06:53.393Z,28
2023-05-04T04:08:09.643Z,29
2023-05-04T04:09:25.872Z,31
2023-05-04T04:10:42.117Z,33
2023-05-04T04:11:58.353Z,35
2023-05-04T04:13:14.605Z,36
2023-05-04T04:14:30.847Z,38
2023-05-04T04:15:47.093Z,39
2023-05-04T04:17:03.335Z,41
2023-05-04T04:18:19.561Z,42
2023-05-04T04:19:35.805Z,43
2023-05-04T04:20:51.056Z,45
2023-05-04T04:22:07.306Z,46
2023-05-04T04:23:23.543Z,48
2023-05-04T04:24:39.784Z,49
2023-05-04T04:25:56.027Z,50
2023-05-04T04:27:12.265Z,51
2023-05-04T04:28:28.506Z,53
2023-05-04T04:29:44.751Z,55
2023-05-04T04:31:00.994Z,56
2023-05-04T04:32:17.238Z,57
2023-05-04T04:33:33.473Z,58
2023-05-04T04:34:49.717Z,60
2023-05-04T04:36:05.947Z,61
2023-05-04T04:37:21.221Z,62
2023-05-04T04:38:37.463Z,64
2023-05-04T04:39:53.704Z,66
2023-05-04T04:41:09.936Z,67
2023-05-04T04:42:26.168Z,68
2023-05-04T04:43:42.430Z,70
2023-05-04T04:44:58.662Z,71
2023-05-04T04:46:14.899Z,73
2023-05-04T04:47:31.141Z,74
2023-05-04T04:48:47.381Z,75
2023-05-04T04:50:03.627Z,77
2023-05-04T04:51:19.860Z,79
2023-05-04T04:52:36.098Z,81
2023-05-04T04:53:51.369Z,83
2023-05-04T04:55:07.593Z,85
2023-05-04T04:56:23.856Z,87
2023-05-04T04:57:40.080Z,90
2023-05-04T04:58:56.336Z,93
2023-05-04T05:00:12.563Z,96
2023-05-04T05:01:28.810Z,100
2023-05-04T05:02:45.057Z,105
2023-05-04T05:04:01.300Z,108
2023-05-04T05:05:17.526Z,113
2023-05-04T05:06:33.761Z,117
2023-05-04T05:07:50.014Z,123
2023-05-04T05:09:06.247Z,129
2023-05-04T05:10:21.505Z,134
2023-05-04T05:11:37.762Z,139
2023-05-04T05:12:53.988Z,144
2023-05-04T05:14:10.243Z,149
2023-05-04T05:15:26.473Z,155
2023-05-04T05:16:42.705Z,159
2023-05-04T05:17:58.945Z,163
2023-05-04T05:19:15.202Z,168
2023-05-04T05:20:31.428Z,169
2023-05-04T05:21:47.679Z,167
2023-05-04T05:23:03.908Z,166
2023-05-04T05:24:20.149Z,171
2023-05-04T05:25:36.409Z,176
2023-05-04T05:26:51.674Z,180
2023-05-04T05:28:07.891Z,185
2023-05-04T05:29:24.132Z,191
2023-05-04T05:30:40.378Z,194
2023-05-04T05:31:56.619Z,194
2023-05-04T05:33:12.872Z,194
2023-05-04T05:34:29.093Z,191
2023-05-04T05:35:45.340Z,184
2023-05-04T05:37:01.576Z,196
2023-05-04T05:38:17.822Z,218
2023-05-04T05:39:34.074Z,225
2023-05-04T05:40:50.306Z,219
2023-05-04T05:42:06.549Z,214
2023-05-04T05:43:21.796Z,228
2023-05-04T05:44:38.044Z,225
2023-05-04T05:45:54.279Z,223
2023-05-04T05:47:10.537Z,229
2023-05-04T05:48:26.785Z,230
2023-05-04T05:49:43.015Z,234
2023-05-04T05:50:59.244Z,239
2023-05-04T05:52:15.485Z,244
2023-05-04T05:53:31.731Z,251
2023-05-04T05:54:47.984Z,257
2023-05-04T05:56:04.213Z,261
2023-05-04T05:57:20.451Z,266
2023-05-04T05:58:36.698Z,268
2023-05-04T05:59:51.963Z,270
2023-05-04T06:01:08.191Z,271
2023-05-04T06:02:24.433Z,275
2023-05-04T06:03:40.669Z,279
2023-05-04T06:04:56.927Z,281
2023-05-04T06:06:13.158Z,282
2023-05-04T06:07:28.423Z,284
2023-05-04T06:08:44.664Z,285
2023-05-04T06:10:00.899Z,288
2023-05-04T06:11:17.148Z,293
2023-05-04T06:12:33.379Z,299
2023-05-04T06:13:49.623Z,298
2023-05-04T06:15:05.861Z,296
2023-05-04T06:16:22.108Z,304
2023-05-04T06:17:38.347Z,281
2023-05-04T06:18:54.585Z,249
2023-05-04T06:20:10.833Z,273
2023-05-04T06:21:27.067Z,309
2023-05-04T06:22:43.319Z,309
2023-05-04T06:23:58.564Z,312
2023-05-04T06:25:14.814Z,318
2023-05-04T06:26:31.049Z,316
2023-05-04T06:27:47.280Z,312
2023-05-04T06:29:03.525Z,314
2023-05-04T06:30:19.768Z,314
2023-05-04T06:31:36.012Z,319
2023-05-04T06:32:52.243Z,328
2023-05-04T06:34:08.487Z,333
2023-05-04T06:35:24.732Z,335
2023-05-04T06:36:40.969Z,340
2023-05-04T06:37:57.218Z,334
2023-05-04T06:39:13.448Z,330
2023-05-04T06:40:28.718Z,347
2023-05-04T06:41:44.967Z,347
2023-05-04T06:43:01.198Z,341
2023-05-04T06:44:17.436Z,337
2023-05-04T06:45:33.669Z,356
2023-05-04T06:46:49.917Z,359
2023-05-04T06:48:06.153Z,357
2023-05-04T06:49:22.392Z,354
2023-05-04T06:50:38.627Z,338
2023-05-04T06:51:54.878Z,325
2023-05-04T06:53:11.122Z,342
2023-05-04T06:54:27.368Z,349
2023-05-04T06:55:43.604Z,356
2023-05-04T06:56:58.858Z,361
2023-05-04T06:58:15.089Z,364
2023-05-04T06:59:31.338Z,369
2023-05-04T07:00:47.579Z,379
2023-05-04T07:02:03.824Z,384
2023-05-04T07:03:20.064Z,379
2023-05-04T07:04:36.294Z,376
2023-05-04T07:05:52.539Z,395
2023-05-04T07:07:08.779Z,384
2023-05-04T07:08:25.022Z,382
2023-05-04T07:09:41.257Z,404
2023-05-04T07:10:57.498Z,404
2023-05-04T07:12:13.745Z,382
2023-05-04T07:13:28.995Z,376
2023-05-04T07:14:45.238Z,377
2023-05-04T07:16:01.478Z,379
2023-05-04T07:17:17.727Z,403
2023-05-04T07:18:33.962Z,417
2023-05-04T07:19:50.202Z,412
2023-05-04T07:21:06.445Z,401
2023-05-04T07:23:38.931Z,397
2023-05-04T07:24:55.153Z,414
2023-05-04T07:26:11.402Z,396
2023-05-04T07:27:27.653Z,395
2023-05-04T07:28:43.887Z,417
2023-05-04T07:29:59.143Z,427
2023-05-04T07:31:15.388Z,437
2023-05-04T07:32:31.628Z,439
2023-05-04T07:33:47.866Z,435
2023-05-04T07:35:04.093Z,433
2023-05-04T07:36:20.333Z,448
2023-05-04T07:37:36.586Z,445
2023-05-04T07:38:52.824Z,432
2023-05-04T07:40:09.057Z,431
2023-05-04T07:41:25.299Z,451
2023-05-04T07:42:41.548Z,478
2023-05-04T07:43:57.780Z,473
2023-05-04T07:45:14.030Z,464
2023-05-04T07:46:29.284Z,460
2023-05-04T07:47:45.531Z,472
2023-05-04T07:49:01.757Z,452
2023-05-04T07:50:18.013Z,474
2023-05-04T07:51:34.243Z,508
2023-05-04T07:52:50.475Z,502
2023-05-04T07:54:06.735Z,478
2023-05-04T07:55:22.959Z,480
2023-05-04T07:56:39.206Z,498
2023-05-04T07:57:55.440Z,476
2023-05-04T07:59:11.689Z,468
2023-05-04T08:00:27.922Z,468
2023-05-04T08:01:44.157Z,470
2023-05-04T08:02:59.426Z,476
2023-05-04T08:04:15.665Z,482
2023-05-04T08:05:31.899Z,473
2023-05-04T08:06:48.149Z,486
2023-05-04T08:08:04.392Z,497
2023-05-04T08:09:20.620Z,499
2023-05-04T08:10:36.862Z,510
2023-05-04T08:11:53.098Z,496
2023-05-04T08:13:09.356Z,490
2023-05-04T08:14:25.594Z,494
2023-05-04T08:15:41.834Z,505
2023-05-04T08:16:58.067Z,533
2023-05-04T08:18:14.311Z,547
2023-05-04T08:19:29.558Z,565
2023-05-04T08:20:45.797Z,567
2023-05-04T08:22:02.044Z,576
2023-05-04T08:23:18.298Z,576
2023-05-04T08:24:34.535Z,577
2023-05-04T08:25:50.772Z,588
2023-05-04T08:27:07.004Z,598
2023-05-04T08:28:23.246Z,608
2023-05-04T08:29:39.492Z,621
2023-05-04T08:30:55.738Z,624
2023-05-04T08:32:11.959Z,617
2023-05-04T08:33:28.212Z,584
2023-05-04T08:34:44.444Z,584
2023-05-04T08:35:59.704Z,596
2023-05-04T08:37:15.942Z,632
2023-05-04T08:38:32.194Z,656
2023-05-04T08:39:48.422Z,644
2023-05-04T08:41:04.664Z,631
2023-05-04T08:42:20.918Z,616
2023-05-04T08:43:37.161Z,593
2023-05-04T08:44:53.384Z,587
2023-05-04T08:46:09.625Z,591
2023-05-04T08:47:25.866Z,597
2023-05-04T08:48:42.113Z,603
2023-05-04T08:49:58.345Z,610
2023-05-04T08:51:14.589Z,608
2023-05-04T08:52:29.845Z,617
2023-05-04T08:53:46.090Z,619
2023-05-04T08:55:02.332Z,619
2023-05-04T08:56:18.565Z,607
2023-05-04T08:57:34.800Z,594
2023-05-04T08:58:51.050Z,600
2023-05-04T09:00:07.282Z,617
2023-05-04T09:01:23.534Z,629
2023-05-04T09:02:39.767Z,641
2023-05-04T09:03:56.013Z,661
2023-05-04T09:05:12.250Z,654
2023-05-04T09:06:28.487Z,641
2023-05-04T09:07:44.737Z,633
2023-05-04T09:08:59.979Z,626
2023-05-04T09:10:16.229Z,616
2023-05-04T09:11:32.458Z,602
2023-05-04T09:12:48.703Z,586
2023-05-04T09:14:04.946Z,607
2023-05-04T09:15:21.185Z,641
2023-05-04T09:16:37.429Z,651
2023-05-04T09:17:53.669Z,642
2023-05-04T09:19:09.904Z,656
2023-05-04T09:20:26.146Z,661
2023-05-04T09:21:42.391Z,665
2023-05-04T09:22:58.628Z,666
2023-05-04T09:24:14.882Z,638
2023-05-04T09:25:30.121Z,624
2023-05-04T09:26:46.378Z,656
2023-05-04T09:28:02.617Z,663
2023-05-04T09:29:18.846Z,658
2023-05-04T09:30:35.086Z,662
2023-05-04T09:31:51.334Z,660
2023-05-04T09:33:07.578Z,665
2023-05-04T09:34:23.815Z,687
2023-05-04T09:35:40.048Z,686
2023-05-04T09:36:56.295Z,691
2023-05-04T09:38:12.543Z,698
2023-05-04T09:39:28.781Z,707
2023-05-04T09:40:45.013Z,712
2023-05-04T09:42:00.260Z,709
2023-05-04T09:43:16.511Z,707
2023-05-04T09:44:32.756Z,689
2023-05-04T09:45:48.999Z,677
2023-05-04T09:47:05.222Z,674
2023-05-04T09:48:21.469Z,656
2023-05-04T09:49:37.716Z,670
2023-05-04T09:50:53.957Z,686
2023-05-04T09:52:10.188Z,658
2023-05-04T09:53:26.443Z,657
2023-05-04T09:54:42.676Z,666
2023-05-04T09:55:58.913Z,640
2023-05-04T09:57:15.163Z,622
2023-05-04T09:58:30.406Z,623
2023-05-04T09:59:46.659Z,653
2023-05-04T10:01:02.901Z,647
2023-05-04T10:02:19.137Z,641
2023-05-04T10:03:35.384Z,671
2023-05-04T10:04:51.606Z,717
2023-05-04T10:06:07.860Z,716
2023-05-04T10:07:24.098Z,712
2023-05-04T10:08:40.327Z,709
2023-05-04T10:09:56.577Z,725
2023-05-04T10:11:12.811Z,751
2023-05-04T10:12:29.062Z,773
2023-05-04T10:13:45.297Z,760
2023-05-04T10:15:00.559Z,755
2023-05-04T10:16:16.783Z,754
2023-05-04T10:17:33.029Z,741
2023-05-04T10:18:49.270Z,734
2023-05-04T10:20:05.518Z,730
2023-05-04T10:21:21.757Z,709
2023-05-04T10:22:37.011Z,716
2023-05-04T10:23:53.246Z,745
2023-05-04T10:25:09.482Z,738
2023-05-04T10:26:25.741Z,731
2023-05-04T10:27:41.966Z,736
2023-05-04T10:28:58.216Z,722
2023-05-04T10:30:14.455Z,733
2023-05-04T10:31:30.689Z,742
2023-05-04T10:32:46.922Z,720
2023-05-04T10:34:03.168Z,748
2023-05-04T10:35:19.423Z,757
2023-05-04T10:36:35.656Z,755
2023-05-04T10:37:51.886Z,742
2023-05-04T10:39:07.166Z,707
2023-05-04T10:40:23.387Z,674
2023-05-04T10:41:39.628Z,685
2023-05-04T10:42:55.870Z,678
2023-05-04T10:44:12.113Z,653
2023-05-04T10:45:28.361Z,634
2023-05-04T10:46:44.585Z,682
2023-05-04T10:48:00.836Z,677
2023-05-04T10:49:17.065Z,644
2023-05-04T10:50:33.318Z,665
2023-05-04T10:51:49.547Z,687
2023-05-04T10:53:05.787Z,677
2023-05-04T10:54:22.034Z,680
2023-05-04T10:55:37.281Z,697
2023-05-04T10:56:53.533Z,737
2023-05-04T10:58:09.761Z,750
2023-05-04T10:59:26.001Z,738
2023-05-04T11:00:42.244Z,717
2023-05-04T11:03:14.741Z,677
2023-05-04T11:04:30.979Z,682
2023-05-04T11:05:47.199Z,676
2023-05-04T11:07:03.441Z,680
2023-05-04T11:08:19.680Z,686
2023-05-04T11:09:35.924Z,698
2023-05-04T11:10:52.161Z,720
2023-05-04T11:12:07.416Z,694
2023-05-04T11:13:23.655Z,659
2023-05-04T11:14:39.899Z,653
2023-05-04T11:15:56.137Z,650
2023-05-04T11:17:12.398Z,629
2023-05-04T11:18:28.630Z,630
2023-05-04T11:19:44.867Z,634
2023-05-04T11:21:01.116Z,625
2023-05-04T11:22:17.353Z,636
2023-05-04T11:23:33.595Z,626
2023-05-04T11:24:49.828Z,628
2023-05-04T11:26:06.083Z,613
2023-05-04T11:27:22.304Z,602
2023-05-04T11:28:37.568Z,597
2023-05-04T11:29:53.804Z,592
2023-05-04T11:31:10.043Z,608
2023-05-04T11:32:26.284Z,601
2023-05-04T11:33:42.516Z,602
2023-05-04T11:34:58.766Z,591
2023-05-04T11:36:15.003Z,572
2023-05-04T11:37:31.245Z,557
2023-05-04T11:38:47.484Z,557
2023-05-04T11:40:03.722Z,561
2023-05-04T11:41:19.000Z,574
2023-05-04T11:42:36.202Z,570
2023-05-04T11:43:52.447Z,569
2023-05-04T11:45:07.700Z,573
2023-05-04T11:46:23.950Z,574
2023-05-04T11:47:40.000Z,577
2023-05-04T11:48:56.427Z,578
2023-05-04T11:50:12.659Z,577
2023-05-04T11:51:28.905Z,570
2023-05-04T11:52:45.151Z,558
2023-05-04T11:54:01.390Z,540
2023-05-04T11:55:17.625Z,536
2023-05-04T11:56:33.875Z,530
2023-05-04T11:57:50.113Z,538
2023-05-04T11:59:06.339Z,532
2023-05-04T12:00:22.585Z,529
2023-05-04T12:01:37.832Z,532
2023-05-04T12:02:54.083Z,527
2023-05-04T12:04:10.326Z,525
2023-05-04T12:05:26.574Z,514
2023-05-04T12:06:42.795Z,511
2023-05-04T12:07:59.041Z,506
2023-05-04T12:09:15.287Z,517
2023-05-04T12:10:31.519Z,544
2023-05-04T12:11:47.772Z,694
2023-05-04T12:13:03.998Z,1365
2023-05-04T12:14:20.246Z,4918
2023-05-04T12:15:36.493Z,4924
2023-05-04T12:16:52.717Z,3945
2023-05-04T12:18:07.974Z,804
2023-05-04T12:19:24.224Z,974
2023-05-04T12:20:40.459Z,1730
2023-05-04T12:21:56.711Z,7702
2023-05-04T12:23:12.951Z,8470
2023-05-04T12:24:29.185Z,2448
2023-05-04T12:25:45.425Z,614
2023-05-04T12:27:01.657Z,490
2023-05-04T12:28:17.898Z,470
2023-05-04T12:29:34.139Z,462
2023-05-04T12:30:50.384Z,460
2023-05-04T12:32:06.621Z,456
2023-05-04T12:33:22.866Z,456
2023-05-04T12:34:38.126Z,457
2023-05-04T12:35:54.363Z,465
2023-05-04T12:37:10.593Z,459
2023-05-04T12:38:26.829Z,451
2023-05-04T12:39:43.079Z,451
2023-05-04T12:40:59.323Z,452
2023-05-04T12:42:15.562Z,445
2023-05-04T12:43:31.802Z,444
2023-05-04T12:44:48.050Z,443
2023-05-04T12:46:04.287Z,441
2023-05-04T12:47:20.528Z,440
2023-05-04T12:48:36.769Z,436
2023-05-04T12:49:53.000Z,432
2023-05-04T12:51:08.255Z,429
2023-05-04T12:52:24.497Z,431
2023-05-04T12:53:40.736Z,432
2023-05-04T12:54:56.978Z,431
2023-05-04T12:56:13.227Z,430
2023-05-04T12:57:29.460Z,426
2023-05-04T12:58:45.698Z,421
2023-05-04T13:00:01.955Z,419
2023-05-04T13:01:18.169Z,415
2023-05-04T13:02:34.411Z,406
2023-05-04T13:03:50.672Z,399
2023-05-04T13:05:06.893Z,393
2023-05-04T13:06:23.133Z,387
2023-05-04T13:07:38.385Z,383
2023-05-04T13:08:54.640Z,378
2023-05-04T13:10:10.881Z,377
2023-05-04T13:11:27.110Z,384
2023-05-04T13:12:43.347Z,370
2023-05-04T13:13:59.597Z,372
2023-05-04T13:15:15.827Z,373
2023-05-04T13:16:32.076Z,376
2023-05-04T13:17:48.310Z,379
2023-05-04T13:19:04.567Z,395
2023-05-04T13:20:20.807Z,389
2023-05-04T13:21:37.038Z,399
2023-05-04T13:24:09.507Z,420
2023-05-04T13:25:24.774Z,426
2023-05-04T13:26:41.017Z,428
2023-05-04T13:27:57.244Z,571
2023-05-04T13:29:13.498Z,497
2023-05-04T13:30:29.748Z,410
2023-05-04T13:31:45.972Z,452
2023-05-04T13:33:02.224Z,489
2023-05-04T13:34:18.465Z,518
2023-05-04T13:35:34.704Z,502
2023-05-04T13:36:50.942Z,491
2023-05-04T13:38:07.195Z,495
2023-05-04T13:39:23.424Z,513
2023-05-04T13:40:39.665Z,501
2023-05-04T13:41:54.906Z,501
2023-05-04T13:43:11.149Z,514
2023-05-04T13:44:27.384Z,469
2023-05-04T13:45:43.628Z,428
2023-05-04T13:46:59.876Z,425
2023-05-04T13:48:16.111Z,394
2023-05-04T13:49:32.350Z,412
2023-05-04T13:50:48.596Z,417
2023-05-04T13:52:04.841Z,473
2023-05-04T13:53:21.070Z,512
2023-05-04T13:54:37.320Z,507
2023-05-04T13:55:53.558Z,525
2023-05-04T13:57:09.796Z,525
2023-05-04T13:58:25.051Z,550
2023-05-04T13:59:41.292Z,531
2023-05-04T14:00:57.533Z,493
2023-05-04T14:02:13.771Z,478
2023-05-04T14:03:30.012Z,503
2023-05-04T14:04:46.262Z,538
2023-05-04T14:06:02.485Z,534
2023-05-04T14:07:18.747Z,519
2023-05-04T14:08:34.989Z,577
2023-05-04T14:09:51.220Z,568
2023-05-04T14:11:07.458Z,509
2023-05-04T14:12:23.695Z,530
2023-05-04T14:13:39.930Z,533
2023-05-04T14:14:55.188Z,575
2023-05-04T14:16:11.430Z,521
2023-05-04T14:17:27.668Z,569
2023-05-04T14:18:43.916Z,648
2023-05-04T14:20:00.155Z,1508
2023-05-04T14:21:16.385Z,664
2023-05-04T14:22:32.638Z,905
2023-05-04T14:23:48.876Z,1435
2023-05-04T14:25:05.105Z,738
2023-05-04T14:26:21.353Z,745
2023-05-04T14:27:37.593Z,661
2023-05-04T14:28:53.840Z,671
2023-05-04T14:30:10.078Z,712
2023-05-04T14:31:25.328Z,822
2023-05-04T14:32:41.563Z,723
2023-05-04T14:33:57.802Z,587
2023-05-04T14:35:14.053Z,586
2023-05-04T14:36:30.285Z,588
2023-05-04T14:37:45.556Z,602
2023-05-04T14:39:01.784Z,626
2023-05-04T14:40:18.033Z,577
2023-05-04T14:41:34.261Z,550
2023-05-04T14:42:50.504Z,544
2023-05-04T14:44:06.747Z,536
2023-05-04T14:45:22.996Z,531
2023-05-04T14:46:39.222Z,531
2023-05-04T14:47:55.463Z,525
2023-05-04T14:49:11.714Z,528
2023-05-04T14:50:27.948Z,495
2023-05-04T14:51:44.183Z,428
2023-05-04T14:53:00.424Z,519
2023-05-04T14:54:15.680Z,1105
2023-05-04T14:55:31.921Z,1025
2023-05-04T14:56:48.158Z,960
2023-05-04T14:58:04.412Z,567
2023-05-04T14:59:20.646Z,485
2023-05-04T15:00:36.894Z,490
2023-05-04T15:01:53.121Z,493
2023-05-04T15:03:09.367Z,500
2023-05-04T15:04:25.604Z,513
2023-05-04T15:05:41.840Z,583
2023-05-04T15:06:58.099Z,798
2023-05-04T15:08:14.329Z,554
2023-05-04T15:09:30.579Z,561
2023-05-04T15:10:45.814Z,1298
2023-05-04T15:12:02.071Z,697
2023-05-04T15:13:18.305Z,988
2023-05-04T15:14:34.554Z,3262
2023-05-04T15:15:50.783Z,4001
2023-05-04T15:17:07.020Z,2101
2023-05-04T15:18:23.261Z,1194
2023-05-04T15:19:39.515Z,897
2023-05-04T15:20:55.737Z,1079
2023-05-04T15:22:11.988Z,647
2023-05-04T15:23:28.232Z,586
2023-05-04T15:24:44.464Z,1143
2023-05-04T15:26:00.711Z,6424
2023-05-04T15:27:15.970Z,5320
2023-05-04T15:28:32.212Z,2170
2023-05-04T15:29:48.448Z,1453
2023-05-04T15:31:04.691Z,1016
2023-05-04T15:32:20.923Z,851
2023-05-04T15:33:37.169Z,744
2023-05-04T15:34:53.398Z,687
2023-05-04T15:36:09.639Z,648
2023-05-04T15:37:25.900Z,399
2023-05-04T15:38:42.127Z,1034
2023-05-04T15:39:58.364Z,715
2023-05-04T15:41:14.600Z,736
2023-05-04T15:42:30.853Z,614
2023-05-04T15:43:46.117Z,590
2023-05-04T15:45:02.331Z,371
2023-05-04T15:46:18.587Z,1245
2023-05-04T15:47:34.828Z,1007
2023-05-04T15:48:51.055Z,966
2023-05-04T15:50:07.301Z,575
2023-05-04T15:51:23.535Z,534
2023-05-04T15:52:39.791Z,505
2023-05-04T15:53:56.020Z,492
2023-05-04T15:55:12.260Z,519
2023-05-04T15:56:28.499Z,545
2023-05-04T15:57:44.749Z,491
2023-05-04T15:59:00.973Z,490
2023-05-04T16:00:16.248Z,469
2023-05-04T16:01:32.470Z,485
2023-05-04T16:02:48.709Z,557
2023-05-04T16:04:04.954Z,496
2023-05-04T16:05:21.197Z,470
2023-05-04T16:06:37.432Z,451
2023-05-04T16:07:53.673Z,443
2023-05-04T16:09:09.916Z,412
2023-05-04T16:10:26.168Z,376
2023-05-04T16:11:42.410Z,461
2023-05-04T16:12:58.637Z,438
2023-05-04T16:14:14.885Z,407
2023-05-04T16:15:31.119Z,355
2023-05-04T16:16:46.370Z,450
2023-05-04T16:18:02.618Z,416
2023-05-04T16:19:18.853Z,395
2023-05-04T16:20:35.108Z,391
2023-05-04T16:21:51.339Z,397
2023-05-04T16:23:07.571Z,367
2023-05-04T16:24:23.830Z,347
2023-05-04T16:25:40.061Z,352
2023-05-04T16:26:56.291Z,326
2023-05-04T16:28:12.529Z,339
2023-05-04T16:29:28.776Z,323
2023-05-04T16:30:45.011Z,340
2023-05-04T16:32:01.271Z,317
2023-05-04T16:33:16.511Z,386
2023-05-04T16:34:32.763Z,462
2023-05-04T16:35:48.000Z,368
2023-05-04T16:37:05.253Z,366
2023-05-04T16:38:21.467Z,343
2023-05-04T16:39:37.708Z,337
2023-05-04T16:40:53.962Z,289
2023-05-04T16:42:10.207Z,540
2023-05-04T16:43:26.450Z,357
2023-05-04T16:44:42.676Z,314
2023-05-04T16:45:58.928Z,262
2023-05-04T16:47:15.157Z,314
2023-05-04T16:48:31.405Z,377
2023-05-04T16:49:46.663Z,280
2023-05-04T16:51:02.890Z,262
2023-05-04T16:52:19.131Z,241
2023-05-04T16:53:35.367Z,270
2023-05-04T16:54:51.615Z,267
2023-05-04T16:56:07.858Z,343
2023-05-04T16:57:24.093Z,298
2023-05-04T16:58:40.340Z,303
2023-05-04T16:59:56.576Z,304
2023-05-04T17:01:12.813Z,298
2023-05-04T17:02:29.066Z,304
2023-05-04T17:03:45.292Z,283
2023-05-04T17:05:01.537Z,288
2023-05-04T17:06:16.792Z,243
2023-05-04T17:07:33.044Z,240
2023-05-04T17:08:49.268Z,232
2023-05-04T17:10:05.507Z,198
2023-05-04T17:11:21.754Z,513
2023-05-04T17:12:37.989Z,326
2023-05-04T17:13:54.245Z,230
2023-05-04T17:15:10.491Z,202
2023-05-04T17:16:26.723Z,279
2023-05-04T17:17:42.947Z,257
2023-05-04T17:18:59.195Z,234
2023-05-04T17:20:15.433Z,215
2023-05-04T17:21:31.670Z,205
2023-05-04T17:22:46.926Z,189
2023-05-04T17:24:03.166Z,170
2023-05-04T17:25:19.426Z,172
2023-05-04T17:26:35.643Z,173
2023-05-04T17:27:51.893Z,149
2023-05-04T17:29:08.135Z,118
2023-05-04T17:30:24.363Z,112
2023-05-04T17:31:40.617Z,135
2023-05-04T17:32:56.863Z,133
2023-05-04T17:34:13.091Z,129
2023-05-04T17:35:29.339Z,129
2023-05-04T17:36:45.573Z,117
2023-05-04T17:38:01.811Z,114
2023-05-04T17:39:17.082Z,103
2023-05-04T17:40:33.321Z,86
2023-05-04T17:41:49.550Z,84
2023-05-04T17:43:05.803Z,106
2023-05-04T17:44:22.035Z,125
2023-05-04T17:45:38.276Z,102
2023-05-04T17:46:54.522Z,100
2023-05-04T17:48:10.757Z,104
2023-05-04T17:49:26.988Z,82
2023-05-04T17:50:43.225Z,85